Time;durP1;ratioP1;P1;durP2;ratioP2;P2;SDS_P1;SDS_P2;PMS_P1;PMS_P2;Temp;Humidity;BMP_temperature;BMP_pressure;BME280_temperature;BME280_humidity;BME280_pressure;Samples;Min_cycle;Max_cycle;Signal;HPM_P1;HPM_P2
2022/11/02 00:02:14;;;;;;;0.00;0.00;;;11.70;99.90;;;;;;5050413;28;20071;-81
2022/11/02 00:04:39;;;;;;;0.00;0.00;;;11.60;99.90;;;;;;5055007;28;20053;-82
2022/11/02 00:07:05;;;;;;;0.00;0.00;;;11.50;99.90;;;;;;5048361;28;20072;-81
2022/11/02 00:09:31;;;;;;;1.00;0.88;;;11.50;99.90;;;;;;5049104;28;20053;-82
2022/11/02 00:11:56;;;;;;;2.00;0.68;;;11.50;99.90;;;;;;5032728;28;20041;-83
2022/11/02 00:14:22;;;;;;;1.00;0.55;;;11.40;99.90;;;;;;5051184;28;20064;-81
2022/11/02 00:16:48;;;;;;;11.68;2.53;;;11.40;1.00;;;;;;5051516;28;20079;-80
2022/11/02 00:19:13;;;;;;;0.00;0.00;;;11.40;1.00;;;;;;5051116;28;20041;-81
2022/11/02 00:21:40;;;;;;;1.33;0.55;;;11.40;1.00;;;;;;5051334;28;20137;-79
2022/11/02 00:24:07;;;;;;;0.60;0.47;;;11.30;1.00;;;;;;5051752;28;20048;-80
2022/11/02 00:26:35;;;;;;;0.10;0.10;;;11.30;1.00;;;;;;5050113;28;20494;-80
2022/11/02 00:29:02;;;;;;;0.00;0.00;;;11.20;1.00;;;;;;5052132;28;20419;-81
2022/11/02 00:31:27;;;;;;;0.43;0.25;;;11.30;1.00;;;;;;5051361;28;20057;-80
2022/11/02 00:33:53;;;;;;;0.10;0.00;;;11.40;1.00;;;;;;5050919;28;20094;-80
2022/11/02 00:36:19;;;;;;;0.28;0.22;;;11.30;23.50;;;;;;5052433;28;20104;-78
2022/11/02 00:38:45;;;;;;;0.35;0.35;;;11.30;99.90;;;;;;5051993;28;20049;-81
2022/11/02 00:41:11;;;;;;;0.35;0.22;;;11.10;99.90;;;;;;5051204;28;20037;-80
2022/11/02 00:43:37;;;;;;;0.20;0.10;;;11.00;99.90;;;;;;5033392;28;20048;-82
2022/11/02 00:46:03;;;;;;;0.03;0.03;;;10.90;99.90;;;;;;5052305;28;20048;-79
2022/11/02 00:48:29;;;;;;;0.45;0.43;;;10.80;99.90;;;;;;5031813;28;20056;-81
2022/11/02 00:50:55;;;;;;;0.00;0.00;;;10.70;99.90;;;;;;5053049;28;20041;-81
2022/11/02 00:53:20;;;;;;;0.00;0.00;;;10.70;99.90;;;;;;5053925;28;20037;-80
2022/11/02 00:55:46;;;;;;;0.20;0.20;;;10.60;99.90;;;;;;5051881;28;20036;-81
2022/11/02 00:58:12;;;;;;;0.00;0.00;;;10.60;99.90;;;;;;5052768;28;20055;-81
2022/11/02 01:00:38;;;;;;;0.20;0.20;;;10.50;99.90;;;;;;5050631;28;20045;-82
2022/11/02 01:03:03;;;;;;;0.00;0.00;;;10.40;99.90;;;;;;5050287;28;20493;-82
2022/11/02 01:05:29;;;;;;;0.00;0.00;;;10.30;99.90;;;;;;5031729;28;20049;-80
2022/11/02 01:07:55;;;;;;;0.28;0.28;;;10.30;99.90;;;;;;5032821;28;20120;-79
2022/11/02 01:10:22;;;;;;;0.00;0.00;;;10.30;99.90;;;;;;5049858;28;20053;-82
2022/11/02 01:12:47;;;;;;;0.00;0.00;;;10.20;99.90;;;;;;5049801;28;20400;-80
2022/11/02 01:15:13;;;;;;;0.00;0.00;;;10.10;99.90;;;;;;5050169;28;20128;-81
2022/11/02 01:17:39;;;;;;;0.00;0.00;;;10.10;99.90;;;;;;5032419;28;20612;-80
2022/11/02 01:20:06;;;;;;;0.13;0.10;;;10.10;99.90;;;;;;5049474;28;20104;-81
2022/11/02 01:22:32;;;;;;;0.00;0.00;;;10.10;99.90;;;;;;5049858;28;20128;-80
2022/11/02 01:24:58;;;;;;;0.10;0.10;;;10.00;99.90;;;;;;5049760;28;20152;-81
2022/11/02 01:27:24;;;;;;;0.00;0.00;;;10.10;99.90;;;;;;5049918;28;20059;-81
2022/11/02 01:29:49;;;;;;;0.00;0.00;;;10.10;99.90;;;;;;5049828;28;20051;-81
2022/11/02 01:32:15;;;;;;;0.00;0.00;;;10.10;99.90;;;;;;5049682;28;20510;-80
2022/11/02 01:34:41;;;;;;;0.08;0.00;;;10.10;99.90;;;;;;5049574;28;20131;-81
2022/11/02 01:37:06;;;;;;;0.00;0.00;;;10.00;99.90;;;;;;5049196;28;20071;-79
2022/11/02 01:39:32;;;;;;;0.00;0.00;;;9.90;99.90;;;;;;5048893;28;20052;-79
2022/11/02 01:41:58;;;;;;;0.10;0.10;;;9.90;99.90;;;;;;5049019;28;20446;-81
2022/11/02 01:44:31;;;;;;;0.00;0.00;;;9.90;99.90;;;;;;5048901;28;20072;-80
2022/11/02 01:47:07;;;;;;;0.00;0.00;;;9.70;99.90;;;;;;5048570;28;20071;-80
2022/11/02 01:49:36;;;;;;;0.00;0.00;;;8.90;99.90;;;;;;5048801;28;20094;-80
2022/11/02 01:52:12;;;;;;;0.00;0.00;;;9.60;99.90;;;;;;5047756;28;20045;-80
2022/11/02 01:54:51;;;;;;;0.00;0.00;;;9.70;99.90;;;;;;5026150;28;20134;-81
2022/11/02 01:57:20;;;;;;;0.00;0.00;;;9.60;99.90;;;;;;5043466;28;20514;-82
2022/11/02 02:00:09;;;;;;;0.00;0.00;;;9.50;99.90;;;;;;5048229;28;20049;-79
2022/11/02 02:02:41;;;;;;;0.00;0.00;;;9.50;99.90;;;;;;5047359;28;20278;-80
2022/11/02 02:05:09;;;;;;;0.32;0.32;;;9.60;99.90;;;;;;5048958;28;20056;-80
2022/11/02 02:07:38;;;;;;;0.00;0.00;;;9.60;99.90;;;;;;5048959;28;20127;-79
2022/11/02 02:10:05;;;;;;;1.35;0.15;;;9.70;99.90;;;;;;5050700;28;20067;-77
2022/11/02 02:12:32;;;;;;;4.40;0.35;;;9.80;99.90;;;;;;5051656;28;20104;-81
2022/11/02 02:14:58;;;;;;;1.02;0.28;;;9.90;99.90;;;;;;5055050;28;20049;-80
2022/11/02 02:17:47;;;;;;;0.00;0.00;;;10.10;99.90;;;;;;5066411;28;20051;-82
2022/11/02 02:20:16;;;;;;;0.00;0.00;;;10.20;99.90;;;;;;5068588;28;20052;-82
2022/11/02 02:23:30;;;;;;;0.20;0.20;;;10.30;99.90;;;;;;5069112;28;20041;-80
2022/11/02 02:26:46;;;;;;;13.25;0.25;;;10.30;99.90;;;;;;5056046;28;20183;-81
2022/11/02 02:29:23;;;;;;;0.08;0.08;;;10.40;99.90;;;;;;5069984;28;20051;-82
2022/11/02 02:32:04;;;;;;;0.00;0.00;;;10.40;99.90;;;;;;5063462;28;20041;-79
2022/11/02 02:34:53;;;;;;;0.08;0.08;;;10.60;99.90;;;;;;5057172;28;20095;-82
2022/11/02 02:37:35;;;;;;;0.68;0.45;;;10.60;99.90;;;;;;5059990;28;20044;-80
2022/11/02 02:40:15;;;;;;;0.00;0.00;;;10.80;99.90;;;;;;5070589;28;20045;-81
2022/11/02 02:42:51;;;;;;;1.52;0.55;;;10.70;99.90;;;;;;5071633;28;20055;-83
2022/11/02 02:45:36;;;;;;;0.63;0.57;;;10.60;99.90;;;;;;5071950;28;20028;-81
2022/11/02 02:48:27;;;;;;;0.00;0.00;;;10.60;99.90;;;;;;5071002;28;20075;-81
2022/11/02 02:51:02;;;;;;;0.00;0.00;;;10.60;99.90;;;;;;5070629;28;20056;-81
2022/11/02 02:53:38;;;;;;;0.93;0.32;;;10.60;99.90;;;;;;5059002;28;20049;-81
2022/11/02 02:56:06;;;;;;;0.52;0.38;;;10.60;99.90;;;;;;5039224;28;20068;-81
2022/11/02 02:58:43;;;;;;;0.35;0.28;;;10.50;99.90;;;;;;5058073;28;20582;-81
2022/11/02 03:01:13;;;;;;;0.00;0.00;;;10.40;99.90;;;;;;5047578;28;20322;-79
2022/11/02 03:03:40;;;;;;;0.55;0.55;;;10.40;99.90;;;;;;5048133;28;20045;-79
2022/11/02 03:06:18;;;;;;;0.10;0.08;;;10.40;99.90;;;;;;5043896;28;20191;-80
2022/11/02 03:09:02;;;;;;;0.20;0.13;;;10.90;99.90;;;;;;5037387;28;20395;-80
2022/11/02 03:11:29;;;;;;;0.10;0.10;;;10.30;99.90;;;;;;5047799;28;20045;-79
2022/11/02 03:14:05;;;;;;;0.00;0.00;;;10.20;99.90;;;;;;5047900;28;20544;-79
2022/11/02 03:17:12;;;;;;;0.00;0.00;;;10.10;99.90;;;;;;5048149;28;20041;-79
2022/11/02 03:19:52;;;;;;;0.00;0.00;;;9.90;99.90;;;;;;5017593;28;20060;-80
2022/11/02 03:22:41;;;;;;;0.00;0.00;;;9.80;99.90;;;;;;5046600;28;20063;-81
2022/11/02 03:25:27;;;;;;;0.00;0.00;;;9.80;99.90;;;;;;5040439;28;20675;-80
2022/11/02 03:28:08;;;;;;;0.00;0.00;;;9.70;99.90;;;;;;5047754;28;20389;-80
2022/11/02 03:30:59;;;;;;;0.00;0.00;;;9.60;99.90;;;;;;5047383;28;20135;-80
2022/11/02 03:33:35;;;;;;;0.00;0.00;;;9.60;99.90;;;;;;5046141;28;20057;-79
2022/11/02 03:36:07;;;;;;;0.00;0.00;;;9.70;99.90;;;;;;5047754;28;20041;-80
2022/11/02 03:38:56;;;;;;;0.40;0.05;;;9.70;99.90;;;;;;5046729;28;20055;-79
2022/11/02 03:41:24;;;;;;;0.00;0.00;;;9.60;99.90;;;;;;5029026;28;20045;-80
2022/11/02 03:43:54;;;;;;;6.30;0.43;;;9.50;99.90;;;;;;5047448;28;20399;-80
2022/11/02 03:46:21;;;;;;;0.00;0.00;;;9.50;99.90;;;;;;5046930;28;20120;-80
2022/11/02 03:48:49;;;;;;;0.90;0.45;;;9.80;99.90;;;;;;5046240;28;20076;-79
2022/11/02 03:51:18;;;;;;;0.00;0.00;;;9.60;99.90;;;;;;5047336;28;20052;-81
2022/11/02 03:53:50;;;;;;;0.05;0.03;;;9.50;99.90;;;;;;5047690;28;20508;-78
2022/11/02 03:56:23;;;;;;;0.25;0.20;;;9.60;99.90;;;;;;5047813;28;20418;-80
2022/11/02 03:58:49;;;;;;;0.45;0.38;;;9.60;99.90;;;;;;5047254;28;20567;-80
2022/11/02 04:01:18;;;;;;;0.00;0.00;;;9.60;99.90;;;;;;5046381;28;20538;-78
2022/11/02 04:03:45;;;;;;;0.00;0.00;;;9.60;99.90;;;;;;5046209;28;20044;-80
2022/11/02 04:06:11;;;;;;;0.00;0.00;;;9.60;99.90;;;;;;5028441;28;20055;-79
2022/11/02 04:08:41;;;;;;;0.20;0.20;;;9.60;99.90;;;;;;5045952;28;20114;-80
2022/11/02 04:16:36;;;;;;;0.03;0.03;;;9.60;99.90;;;;;;5046308;28;20049;-78
2022/11/02 04:27:15;;;;;;;2.20;0.75;;;10.70;99.90;;;;;;5046997;28;20088;-80
2022/11/02 04:29:41;;;;;;;0.00;0.00;;;9.90;99.90;;;;;;5047147;28;20044;-79
2022/11/02 04:32:06;;;;;;;0.00;0.00;;;9.90;99.90;;;;;;5046940;28;20044;-82
2022/11/02 04:34:32;;;;;;;0.00;0.00;;;9.80;99.90;;;;;;5046853;28;20041;-81
2022/11/02 04:36:58;;;;;;;5.15;2.08;;;9.80;99.90;;;;;;5046935;28;20045;-81
2022/11/02 04:39:23;;;;;;;0.10;0.10;;;9.70;99.90;;;;;;5046129;28;20411;-78
2022/11/02 04:41:49;;;;;;;0.00;0.00;;;9.70;99.90;;;;;;5046469;28;20076;-81
2022/11/02 04:44:15;;;;;;;0.35;0.20;;;9.70;99.90;;;;;;5046654;28;20056;-81
2022/11/02 04:46:42;;;;;;;0.75;0.40;;;9.80;99.90;;;;;;5044510;28;20082;-80
2022/11/02 04:49:09;;;;;;;0.10;0.10;;;9.80;99.90;;;;;;5044408;28;20037;-80
2022/11/02 04:51:35;;;;;;;0.00;0.00;;;9.80;99.90;;;;;;5027600;28;20130;-80
2022/11/02 04:54:02;;;;;;;0.00;0.00;;;9.80;99.90;;;;;;5030003;28;20061;-81
2022/11/02 04:56:28;;;;;;;0.30;0.30;;;9.80;99.90;;;;;;5050254;28;20060;-82
2022/11/02 04:58:56;;;;;;;0.00;0.00;;;10.00;99.90;;;;;;5049895;28;20511;-82
2022/11/02 05:01:24;;;;;;;0.52;0.15;;;9.80;99.90;;;;;;5050363;28;20092;-80
2022/11/02 05:03:50;;;;;;;0.10;0.00;;;9.80;99.90;;;;;;5050076;28;20537;-80
2022/11/02 05:06:18;;;;;;;0.22;0.22;;;9.80;99.90;;;;;;5050239;28;20048;-80
2022/11/02 05:08:43;;;;;;;0.00;0.00;;;9.80;99.90;;;;;;5049833;28;20044;-79
2022/11/02 05:11:10;;;;;;;0.20;0.20;;;9.70;99.90;;;;;;5050254;28;20049;-80
2022/11/02 05:13:38;;;;;;;1.05;0.95;;;9.70;99.90;;;;;;5050162;28;20095;-81
2022/11/02 05:16:04;;;;;;;0.70;0.52;;;9.80;99.90;;;;;;5050566;28;20452;-81
2022/11/02 05:18:30;;;;;;;0.00;0.00;;;9.70;99.90;;;;;;5052831;28;20053;-81
2022/11/02 05:20:58;;;;;;;0.73;0.65;;;9.70;99.90;;;;;;5062471;28;20108;-80
2022/11/02 05:23:24;;;;;;;0.00;0.00;;;9.70;99.90;;;;;;5065261;28;20045;-79
2022/11/02 05:25:58;;;;;;;1.25;1.02;;;9.80;99.90;;;;;;5064051;28;20041;-81
2022/11/02 05:28:25;;;;;;;0.00;0.00;;;9.80;99.90;;;;;;5064540;28;20021;-79
2022/11/02 05:30:51;;;;;;;7.00;1.42;;;9.80;99.90;;;;;;5065170;28;20049;-79
2022/11/02 05:33:17;;;;;;;0.00;0.00;;;9.80;99.90;;;;;;5050662;28;20036;-79
2022/11/02 05:35:42;;;;;;;0.05;0.05;;;9.70;99.90;;;;;;5072571;28;20040;-80
2022/11/02 05:38:08;;;;;;;4.47;1.50;;;9.80;99.90;;;;;;5072250;28;20025;-82
2022/11/02 05:40:36;;;;;;;0.75;0.45;;;9.80;99.90;;;;;;5072724;28;20093;-80
2022/11/02 05:43:03;;;;;;;0.75;0.30;;;9.80;99.90;;;;;;5072642;28;20055;-80
2022/11/02 05:45:29;;;;;;;0.00;0.00;;;9.70;99.90;;;;;;5072225;28;20361;-80
2022/11/02 05:47:55;;;;;;;0.05;0.05;;;9.60;99.90;;;;;;5054546;28;20624;-81
2022/11/02 05:50:21;;;;;;;0.00;0.00;;;9.60;99.90;;;;;;5053215;28;20049;-80
2022/11/02 05:52:47;;;;;;;0.00;0.00;;;9.60;99.90;;;;;;5050761;28;20051;-80
2022/11/02 05:55:13;;;;;;;0.00;0.00;;;9.70;99.90;;;;;;5048970;28;20521;-80
2022/11/02 05:57:39;;;;;;;0.00;0.00;;;9.60;99.90;;;;;;5048178;28;20491;-80
2022/11/02 06:00:06;;;;;;;0.00;0.00;;;9.50;99.90;;;;;;5049094;28;20055;-80
2022/11/02 06:02:34;;;;;;;0.55;0.20;;;9.50;99.90;;;;;;5047318;28;20092;-81
2022/11/02 06:05:06;;;;;;;0.08;0.08;;;9.60;99.90;;;;;;5047014;28;20147;-79
2022/11/02 06:07:32;;;;;;;0.20;0.20;;;9.70;99.90;;;;;;5044287;28;20167;-80
2022/11/02 06:09:57;;;;;;;0.00;0.00;;;9.60;99.90;;;;;;5045226;28;20530;-78
2022/11/02 06:12:23;;;;;;;0.00;0.00;;;9.60;99.90;;;;;;5027285;28;20132;-78
2022/11/02 06:14:49;;;;;;;1.35;0.68;;;9.60;99.90;;;;;;5044505;28;20051;-79
2022/11/02 06:17:14;;;;;;;0.32;0.32;;;9.60;99.90;;;;;;5043001;28;20037;-80
2022/11/02 06:19:40;;;;;;;0.25;0.17;;;9.70;99.90;;;;;;5045026;28;20144;-79
2022/11/02 06:22:05;;;;;;;2.65;0.70;;;9.70;99.90;;;;;;5044783;28;20055;-79
2022/11/02 06:24:31;;;;;;;2.05;0.47;;;9.60;99.90;;;;;;5045546;28;20365;-78
2022/11/02 06:26:57;;;;;;;0.00;0.00;;;9.60;99.90;;;;;;5045040;28;20047;-78
2022/11/02 06:29:22;;;;;;;0.20;0.20;;;9.90;99.90;;;;;;5027843;28;20075;-79
2022/11/02 06:31:48;;;;;;;3.25;1.85;;;9.70;99.90;;;;;;5046459;28;20119;-80
2022/11/02 06:34:14;;;;;;;0.35;0.35;;;9.70;99.90;;;;;;5046128;28;20460;-79
2022/11/02 06:36:39;;;;;;;0.30;0.25;;;9.70;99.90;;;;;;5046752;28;20120;-79
2022/11/02 06:39:05;;;;;;;0.00;0.00;;;9.80;99.90;;;;;;5046377;28;20052;-80
2022/11/02 06:41:30;;;;;;;1.70;1.00;;;9.90;99.90;;;;;;5045519;28;20051;-80
2022/11/02 06:43:56;;;;;;;0.00;0.00;;;9.90;99.90;;;;;;5046292;28;20044;-79
2022/11/02 06:46:22;;;;;;;0.22;0.20;;;9.90;99.90;;;;;;5046589;28;20085;-81
2022/11/02 06:48:47;;;;;;;0.85;0.43;;;10.00;99.90;;;;;;5046321;28;20071;-80
2022/11/02 06:51:13;;;;;;;1.30;0.55;;;10.00;99.90;;;;;;5046618;28;20095;-80
2022/11/02 06:53:39;;;;;;;1.05;0.50;;;11.00;99.90;;;;;;5046210;28;20059;-80
2022/11/02 06:56:05;;;;;;;15.00;1.48;;;10.10;99.90;;;;;;5047689;28;20514;-79
2022/11/02 06:58:31;;;;;;;0.15;0.10;;;10.10;99.90;;;;;;5028596;28;20049;-79
2022/11/02 07:01:03;;;;;;;1.23;0.47;;;10.20;99.90;;;;;;5028432;28;20519;-82
2022/11/02 07:03:29;;;;;;;0.20;0.20;;;10.20;99.90;;;;;;5026373;28;20046;-80
2022/11/02 07:05:55;;;;;;;0.00;0.00;;;10.20;99.90;;;;;;5026651;28;20515;-81
2022/11/02 07:08:21;;;;;;;0.77;0.45;;;10.30;99.90;;;;;;5025802;28;20045;-79
2022/11/02 07:10:47;;;;;;;0.00;0.00;;;10.30;99.90;;;;;;5026622;28;20471;-80
2022/11/02 07:13:13;;;;;;;1.95;1.17;;;10.40;99.90;;;;;;5026112;28;20593;-81
2022/11/02 07:15:39;;;;;;;0.22;0.22;;;10.40;99.90;;;;;;5025519;28;20408;-80
2022/11/02 07:18:05;;;;;;;2.97;0.93;;;10.30;99.90;;;;;;5024557;28;20064;-80
2022/11/02 07:20:32;;;;;;;0.00;0.00;;;10.30;99.90;;;;;;5026110;28;20057;-80
2022/11/02 07:23:00;;;;;;;3.13;0.65;;;10.30;99.90;;;;;;5025940;28;20060;-79
2022/11/02 07:25:29;;;;;;;0.30;0.30;;;10.30;99.90;;;;;;5037908;28;20051;-81
2022/11/02 07:27:56;;;;;;;3.20;0.73;;;10.30;99.90;;;;;;5044778;28;20051;-80
2022/11/02 07:30:21;;;;;;;0.00;0.00;;;10.30;99.90;;;;;;5036780;28;20040;-80
2022/11/02 07:32:47;;;;;;;2.10;1.27;;;10.30;99.90;;;;;;5045299;28;20036;-81
2022/11/02 07:35:14;;;;;;;11.15;2.10;;;10.40;99.90;;;;;;5045800;28;20044;-80
2022/11/02 07:37:41;;;;;;;0.10;0.10;;;10.40;99.90;;;;;;5045116;28;20102;-78
2022/11/02 07:40:08;;;;;;;2.17;0.43;;;10.40;99.90;;;;;;5045539;28;20442;-80
2022/11/02 07:42:34;;;;;;;3.03;0.55;;;10.50;99.90;;;;;;5045320;28;20224;-80
2022/11/02 07:45:00;;;;;;;2.03;1.75;;;10.50;99.90;;;;;;5044208;28;20060;-82
2022/11/02 07:47:26;;;;;;;0.20;0.20;;;10.40;99.90;;;;;;5039013;28;20434;-81
2022/11/02 07:49:52;;;;;;;0.40;0.30;;;10.40;99.90;;;;;;5044574;28;20148;-80
2022/11/02 07:52:17;;;;;;;0.10;0.10;;;10.30;99.90;;;;;;5045008;28;20206;-79
2022/11/02 07:54:43;;;;;;;0.13;0.13;;;10.30;99.90;;;;;;5045363;28;20053;-80
2022/11/02 07:57:09;;;;;;;0.00;0.00;;;10.20;99.90;;;;;;5045350;28;20037;-78
2022/11/02 07:59:35;;;;;;;0.20;0.20;;;10.30;99.90;;;;;;5045086;28;20457;-79
2022/11/02 08:02:01;;;;;;;0.20;0.20;;;10.50;99.90;;;;;;5046081;28;20061;-80
2022/11/02 08:04:27;;;;;;;0.10;0.10;;;10.40;99.90;;;;;;5045896;28;20109;-79
2022/11/02 08:06:53;;;;;;;0.75;0.57;;;10.50;99.90;;;;;;5046288;28;20045;-79
2022/11/02 08:09:20;;;;;;;0.52;0.28;;;10.70;99.90;;;;;;5049693;28;20049;-80
2022/11/02 08:11:45;;;;;;;1.65;0.80;;;10.80;99.90;;;;;;5055964;28;20037;-79
2022/11/02 08:14:11;;;;;;;0.20;0.20;;;10.90;99.90;;;;;;5055690;28;20045;-80
2022/11/02 08:16:36;;;;;;;0.10;0.10;;;11.00;99.90;;;;;;5055807;28;20101;-79
2022/11/02 08:19:02;;;;;;;0.35;0.25;;;11.10;99.90;;;;;;5055484;28;20490;-80
2022/11/02 08:21:28;;;;;;;0.10;0.03;;;11.10;99.90;;;;;;5050574;28;20048;-80
2022/11/02 08:23:54;;;;;;;0.08;0.08;;;11.10;99.90;;;;;;5042721;28;20120;-78
2022/11/02 08:26:20;;;;;;;0.15;0.15;;;11.10;99.90;;;;;;5042654;28;20373;-78
2022/11/02 08:28:46;;;;;;;0.00;0.00;;;11.10;99.90;;;;;;5042914;28;20060;-79
2022/11/02 08:31:16;;;;;;;1.45;0.77;;;11.10;99.90;;;;;;5026658;28;20046;-78
2022/11/02 08:33:43;;;;;;;4.75;1.30;;;11.10;99.90;;;;;;5044223;28;20052;-79
2022/11/02 08:36:09;;;;;;;1.17;0.65;;;11.10;99.90;;;;;;5044008;28;20055;-78
2022/11/02 08:38:35;;;;;;;0.35;0.30;;;11.20;99.90;;;;;;5042904;28;20041;-80
2022/11/02 08:41:01;;;;;;;0.00;0.00;;;11.20;99.90;;;;;;5044024;28;20419;-79
2022/11/02 08:43:27;;;;;;;0.00;0.00;;;11.00;99.90;;;;;;5043335;28;20043;-79
2022/11/02 08:45:57;;;;;;;0.00;0.00;;;10.90;99.90;;;;;;5043651;28;20051;-79
2022/11/02 08:48:23;;;;;;;0.17;0.17;;;10.80;99.90;;;;;;5043581;28;20462;-78
2022/11/02 08:50:49;;;;;;;0.00;0.00;;;10.80;99.90;;;;;;5042934;28;20148;-78
2022/11/02 08:53:15;;;;;;;0.47;0.35;;;11.70;99.90;;;;;;5042638;28;20053;-79
2022/11/02 08:55:41;;;;;;;0.00;0.00;;;10.90;99.90;;;;;;5043718;28;20555;-79
2022/11/02 08:58:07;;;;;;;0.25;0.00;;;10.90;99.90;;;;;;5043528;28;20129;-78
2022/11/02 09:00:33;;;;;;;0.10;0.10;;;11.10;99.90;;;;;;5043216;28;20502;-80
2022/11/02 09:03:05;;;;;;;0.00;0.00;;;11.10;99.90;;;;;;5021614;28;20046;-80
2022/11/02 09:05:33;;;;;;;0.00;0.00;;;10.90;99.90;;;;;;5023926;28;20041;-77
2022/11/02 09:08:01;;;;;;;0.15;0.15;;;10.70;99.90;;;;;;5022988;28;20455;-79
2022/11/02 09:10:29;;;;;;;0.00;0.00;;;10.60;99.90;;;;;;5022924;28;20049;-78
2022/11/02 09:14:15;;;;;;;0.08;0.08;;;10.50;99.90;;;;;;5068224;22;20124;-87
2022/11/02 09:16:33;;;;;;;0.00;0.00;;;10.40;99.90;;;;;;5063252;28;20257;-87
2022/11/02 09:19:11;;;;;;;0.00;0.00;;;10.50;99.90;;;;;;5065169;28;20414;-87
2022/11/02 09:21:40;;;;;;;0.28;0.20;;;11.00;99.90;;;;;;5053487;28;20063;-87
2022/11/02 09:24:09;;;;;;;0.43;0.43;;;11.00;99.90;;;;;;5087045;28;20084;-87
2022/11/02 09:26:35;;;;;;;0.22;0.22;;;11.20;99.90;;;;;;5070467;28;20036;-87
2022/11/02 09:29:01;;;;;;;0.47;0.47;;;11.40;1.00;;;;;;5053547;28;20044;-87
2022/11/02 09:31:29;;;;;;;0.20;0.20;;;11.40;99.90;;;;;;5052942;28;20033;-87
2022/11/02 09:33:55;;;;;;;0.35;0.22;;;10.80;99.90;;;;;;5051762;28;20041;-87
2022/11/02 09:36:30;;;;;;;0.63;0.55;;;11.50;99.90;;;;;;5052181;28;20073;-87
2022/11/02 09:38:58;;;;;;;0.63;0.20;;;11.70;99.90;;;;;;5068122;28;20045;-87
2022/11/02 09:41:49;;;;;;;0.08;0.08;;;12.10;99.90;;;;;;5067601;28;20029;-88
2022/11/02 09:44:34;;;;;;;0.00;0.00;;;11.40;1.00;;;;;;5085639;28;20035;-87
2022/11/02 09:47:09;;;;;;;0.63;0.50;;;10.80;82.10;;;;;;5083791;28;20044;-87
2022/11/02 09:49:51;;;;;;;0.25;0.25;;;12.00;99.90;;;;;;5066494;28;20104;-87
2022/11/02 09:52:49;;;;;;;0.95;0.50;;;11.20;99.90;;;;;;5066053;28;20036;-87
2022/11/02 09:55:45;;;;;;;0.00;0.00;;;12.20;99.90;;;;;;5067964;28;20186;-86
2022/11/02 09:58:17;;;;;;;0.03;0.03;;;11.50;99.90;;;;;;5056477;28;20290;-87
2022/11/02 10:00:55;;;;;;;0.25;0.25;;;11.00;1.00;;;;;;5050038;28;20059;-86
2022/11/02 10:03:34;;;;;;;0.00;0.00;;;11.40;85.90;;;;;;5068973;28;20062;-87
2022/11/02 10:06:12;;;;;;;0.03;0.03;;;11.40;99.90;;;;;;5050453;28;20037;-87
2022/11/02 10:09:32;;;;;;;0.63;0.38;;;11.50;99.90;;;;;;5049202;28;20080;-87
2022/11/02 10:12:03;;;;;;;0.25;0.25;;;11.50;28.20;;;;;;5032401;28;20100;-86
2022/11/02 10:14:33;;;;;;;0.75;0.75;;;11.60;99.90;;;;;;5051701;28;20097;-87
2022/11/02 10:17:07;;;;;;;1.50;1.00;;;12.50;1.00;;;;;;5066945;28;20109;-86
2022/11/02 10:19:40;;;;;;;0.00;0.00;;;11.90;99.90;;;;;;5066730;28;20028;-87
2022/11/02 10:22:16;;;;;;;1.45;0.57;;;11.90;1.00;;;;;;5068224;28;20045;-87
2022/11/02 10:24:44;;;;;;;0.00;0.00;;;12.00;99.90;;;;;;5068414;28;20049;-87
2022/11/02 10:27:18;;;;;;;0.00;0.00;;;12.90;99.90;;;;;;5050330;28;20054;-86
2022/11/02 10:29:59;;;;;;;0.28;0.28;;;12.50;99.90;;;;;;5050253;28;20047;-86
2022/11/02 10:32:25;;;;;;;0.30;0.30;;;12.50;99.90;;;;;;5065732;28;20080;-86
2022/11/02 10:34:51;;;;;;;19.83;0.90;;;12.90;99.90;;;;;;5050625;28;20063;-86
2022/11/02 10:37:35;;;;;;;0.00;0.00;;;12.80;1.00;;;;;;5051208;28;20104;-87
2022/11/02 10:40:35;;;;;;;0.25;0.25;;;12.90;15.80;;;;;;5076598;28;20063;-87
2022/11/02 10:43:24;;;;;;;0.43;0.40;;;12.20;99.90;;;;;;5067208;28;20033;-87
2022/11/02 10:46:07;;;;;;;0.77;0.28;;;12.80;1.00;;;;;;5030102;28;20045;-87
2022/11/02 10:49:09;;;;;;;0.52;0.52;;;12.70;99.90;;;;;;5030568;28;20044;-86
2022/11/02 10:51:35;;;;;;;0.15;0.15;;;12.60;1.00;;;;;;5082962;28;20052;-86
2022/11/02 10:54:12;;;;;;;0.10;0.00;;;13.40;1.00;;;;;;5066249;28;20035;-86
2022/11/02 10:56:45;;;;;;;0.20;0.20;;;12.80;1.00;;;;;;5066056;28;20033;-86
2022/11/02 10:59:37;;;;;;;2.10;0.15;;;12.90;1.00;;;;;;5083060;28;20049;-87
2022/11/02 11:02:13;;;;;;;1.65;0.15;;;12.90;99.90;;;;;;5064687;28;20091;-86
2022/11/02 11:04:48;;;;;;;0.00;0.00;;;13.40;99.90;;;;;;5065459;28;20028;-87
2022/11/02 11:07:24;;;;;;;0.30;0.30;;;12.90;99.90;;;;;;5082145;28;20068;-87
2022/11/02 11:09:56;;;;;;;;;;;12.80;99.90;;;;;;5061502;28;20040;-87
2022/11/02 11:12:36;;;;;;;0.00;0.00;;;12.70;99.90;;;;;;5040424;28;20389;-86
2022/11/02 11:15:05;;;;;;;0.25;0.25;;;12.80;99.90;;;;;;5040131;28;20499;-87
2022/11/02 11:17:34;;;;;;;0.05;0.05;;;12.70;99.90;;;;;;5043749;28;20040;-87
2022/11/02 11:20:28;;;;;;;0.00;0.00;;;12.70;99.90;;;;;;5038614;28;20079;-87
2022/11/02 11:23:09;;;;;;;4.22;2.72;;;12.70;99.90;;;;;;5053071;28;20056;-87
2022/11/02 11:25:35;;;;;;;0.00;0.00;;;13.60;99.90;;;;;;5046302;28;20037;-87
2022/11/02 11:28:24;;;;;;;0.00;0.00;;;12.70;99.90;;;;;;5060637;28;20098;-87
2022/11/02 11:31:19;;;;;;;0.00;0.00;;;12.50;98.10;;;;;;5069199;28;20104;-87
2022/11/02 11:33:47;;;;;;;0.00;0.00;;;13.00;1.00;;;;;;5063792;28;20414;-86
2022/11/02 11:36:29;;;;;;;0.00;0.00;;;14.20;99.90;;;;;;5065209;28;20050;-86
2022/11/02 11:39:03;;;;;;;0.13;0.13;;;14.70;99.90;;;;;;5049866;28;20057;-86
2022/11/02 11:41:35;;;;;;;0.00;0.00;;;14.60;99.90;;;;;;5070852;28;20045;-86
2022/11/02 11:44:02;;;;;;;0.40;0.40;;;15.20;99.90;;;;;;5054102;28;20635;-86
2022/11/02 11:47:04;;;;;;;0.10;0.00;;;16.40;99.90;;;;;;5053828;28;20029;-86
2022/11/02 11:49:33;;;;;;;0.03;0.03;;;15.70;63.90;;;;;;5036227;28;20048;-86
2022/11/02 11:52:01;;;;;;;2.25;0.98;;;16.60;1.00;;;;;;5060605;28;20064;-86
2022/11/02 11:54:28;;;;;;;0.50;0.25;;;15.70;1.00;;;;;;5052047;28;20161;-86
2022/11/02 11:57:17;;;;;;;0.68;0.30;;;15.60;99.90;;;;;;5068939;28;20041;-86
2022/11/02 11:59:46;;;;;;;0.43;0.28;;;15.20;99.90;;;;;;5067194;28;20040;-86
2022/11/02 12:02:27;;;;;;;0.75;0.75;;;15.10;99.90;;;;;;5052419;28;20084;-86
2022/11/02 12:05:19;;;;;;;0.45;0.32;;;14.60;99.90;;;;;;5053039;28;20057;-85
2022/11/02 12:08:23;;;;;;;1.55;0.63;;;14.10;99.90;;;;;;5070031;28;20087;-85
2022/11/02 12:10:56;;;;;;;0.75;0.55;;;14.10;99.90;;;;;;5069901;28;20060;-86
2022/11/02 12:14:14;;;;;;;0.20;0.20;;;14.00;99.90;;;;;;5071253;28;20060;-86
2022/11/02 12:17:07;;;;;;;0.65;0.57;;;13.90;99.90;;;;;;5055721;28;20064;-85
2022/11/02 12:19:59;;;;;;;0.00;0.00;;;13.90;1.00;;;;;;5074199;28;20029;-86
2022/11/02 12:22:49;;;;;;;0.00;0.00;;;14.20;1.00;;;;;;5049679;28;20045;-86
2022/11/02 12:25:29;;;;;;;0.15;0.15;;;15.30;1.00;;;;;;5072604;28;20100;-85
2022/11/02 12:28:38;;;;;;;1.33;0.52;;;14.90;1.00;;;;;;5057178;28;20060;-85
2022/11/02 12:31:17;;;;;;;0.10;0.10;;;15.20;99.90;;;;;;5034113;28;20041;-85
2022/11/02 12:34:22;;;;;;;0.15;0.10;;;15.40;99.90;;;;;;5056367;28;20059;-85
2022/11/02 12:37:23;;;;;;;0.00;0.00;;;15.60;99.90;;;;;;5023463;28;20049;-85
2022/11/02 12:40:26;;;;;;;0.20;0.20;;;15.50;99.90;;;;;;4997585;28;20140;-86
2022/11/02 12:43:21;;;;;;;0.00;0.00;;;15.50;99.90;;;;;;5058412;28;20053;-85
2022/11/02 12:46:03;;;;;;;0.10;0.00;;;15.50;99.90;;;;;;5071630;28;20226;-85
2022/11/02 12:48:50;;;;;;;0.73;0.70;;;15.70;99.90;;;;;;5071809;28;20132;-86
2022/11/02 12:51:23;;;;;;;0.70;0.38;;;15.80;99.90;;;;;;5053478;28;20052;-85
2022/11/02 12:54:07;;;;;;;3.75;1.55;;;15.90;99.90;;;;;;5055265;28;20080;-85
2022/11/02 12:56:50;;;;;;;0.28;0.28;;;15.70;99.90;;;;;;5071524;28;20104;-86
2022/11/02 12:59:26;;;;;;;0.00;0.00;;;15.50;99.90;;;;;;5055727;28;20069;-86
2022/11/02 13:02:25;;;;;;;;;;;15.50;99.90;;;;;;5073959;28;20032;-85
2022/11/02 13:05:07;;;;;;;;;;;15.10;99.90;;;;;;5022985;28;20042;-85
2022/11/02 13:07:43;;;;;;;0.00;0.00;;;15.30;99.90;;;;;;5074124;28;19992;-85
2022/11/02 13:10:15;;;;;;;0.20;0.20;;;15.10;99.90;;;;;;5056692;28;20035;-86
2022/11/02 13:12:47;;;;;;;0.00;0.00;;;14.90;99.90;;;;;;5073204;28;20533;-84
2022/11/02 13:15:21;;;;;;;0.57;0.30;;;15.70;99.90;;;;;;5072212;28;20048;-85
2022/11/02 13:17:54;;;;;;;0.20;0.20;;;14.80;99.90;;;;;;5055934;28;20043;-85
2022/11/02 13:20:32;;;;;;;1.08;0.25;;;15.90;99.90;;;;;;5072941;28;20071;-85
2022/11/02 13:23:06;;;;;;;7.82;0.22;;;15.40;99.90;;;;;;5073220;28;20037;-86
2022/11/02 13:25:38;;;;;;;0.43;0.43;;;14.90;99.90;;;;;;5057161;28;20040;-86
2022/11/02 13:28:39;;;;;;;0.00;0.00;;;15.70;99.90;;;;;;5072852;28;20049;-85
2022/11/02 13:31:08;;;;;;;0.70;0.32;;;15.90;99.90;;;;;;5047510;28;20061;-86
2022/11/02 13:33:43;;;;;;;1.38;0.55;;;15.70;99.90;;;;;;5073347;28;20075;-86